Time,TemperatureF,DewpointF,PressureIn,WindDirection,WindDirectionDegrees,WindSpeedMPH,WindSpeedGustMPH,Humidity,HourlyPrecipIn,Conditions,Clouds,dailyrainin,SolarRadiationWatts/m^2,SoftwareType,DateUTC
2013-10-01 00:01:00,62.4,58.8,30.00,South,171,0.0,6.0,88,0.00,,,0.00,0.0,meteohub,2013-10-01 04:01:00,
2013-10-01 00:02:00,62.4,58.8,30.00,South,171,0.0,6.0,88,0.00,,,0.00,0.0,meteohub,2013-10-01 04:02:00,
2013-10-01 00:07:00,62.4,59.2,30.00,South,171,0.0,6.0,89,0.00,,,0.00,0.0,meteohub,2013-10-01 04:07:00,
2013-10-01 00:12:00,62.2,59.0,30.00,South,171,0.0,4.0,89,0.00,,,0.00,0.0,meteohub,2013-10-01 04:12:00,
2013-10-01 00:17:00,62.2,59.0,30.00,South,171,0.0,4.0,89,0.00,,,0.00,0.0,meteohub,2013-10-01 04:17:00,
2013-10-01 00:22:00,62.1,59.2,30.00,South,171,0.0,4.0,90,0.00,,,0.00,0.0,meteohub,2013-10-01 04:22:00,
2013-10-01 00:27:00,62.1,59.2,29.99,South,171,0.0,2.0,90,0.00,,,0.00,0.0,meteohub,2013-10-01 04:27:00,
2013-10-01 00:33:00,62.1,59.4,29.99,South,171,0.0,4.0,91,0.00,,,0.00,0.0,meteohub,2013-10-01 04:33:00,
2013-10-01 00:38:00,61.9,59.2,29.99,South,171,0.0,4.0,91,0.00,,,0.00,0.0,meteohub,2013-10-01 04:38:00,
2013-10-01 00:43:00,61.7,59.0,29.99,South,171,0.0,4.0,91,0.00,,,0.00,0.0,meteohub,2013-10-01 04:43:00,
2013-10-01 00:48:00,61.5,59.2,30.00,South,171,0.0,4.0,92,0.00,,,0.00,0.0,meteohub,2013-10-01 04:48:00,
2013-10-01 00:53:00,61.3,59.0,30.00,South,171,0.0,0.0,92,0.00,,,0.00,0.0,meteohub,2013-10-01 04:53:00,
2013-10-01 00:58:00,61.2,59.2,30.00,South,171,0.0,2.0,93,0.00,,,0.00,0.0,meteohub,2013-10-01 04:58:00,
2013-10-01 01:03:00,61.2,59.2,30.00,South,171,0.0,2.0,93,0.00,,,0.00,0.0,meteohub,2013-10-01 05:03:00,
2013-10-01 01:08:00,61.0,59.0,30.00,South,171,0.0,2.0,93,0.00,,,0.00,0.0,meteohub,2013-10-01 05:08:00,
2013-10-01 01:13:00,60.8,59.0,30.00,South,171,0.0,2.0,94,0.00,,,0.00,0.0,meteohub,2013-10-01 05:13:00,
2013-10-01 01:18:00,60.6,58.8,30.00,South,171,0.0,0.0,94,0.00,,,0.00,0.0,meteohub,2013-10-01 05:18:00,
2013-10-01 01:23:00,60.4,58.6,30.00,South,171,0.0,0.0,94,0.00,,,0.00,0.0,meteohub,2013-10-01 05:23:00,
2013-10-01 01:28:00,60.3,58.8,30.00,South,171,0.0,0.0,95,0.00,,,0.00,0.0,meteohub,2013-10-01 05:28:00,
2013-10-01 01:33:00,60.1,58.6,30.00,South,171,0.0,0.0,95,0.00,,,0.00,0.0,meteohub,2013-10-01 05:33:00,
2013-10-01 01:38:00,59.9,58.5,30.00,South,171,0.0,0.0,95,0.00,,,0.00,0.0,meteohub,2013-10-01 05:38:00,
2013-10-01 01:43:00,59.7,58.6,30.01,South,171,0.0,0.0,96,0.00,,,0.00,0.0,meteohub,2013-10-01 05:43:00,
2013-10-01 01:49:00,59.7,58.6,30.01,South,171,0.0,0.0,96,0.00,,,0.00,0.0,meteohub,2013-10-01 05:49:00,
2013-10-01 01:54:00,59.5,58.5,30.01,South,171,0.0,0.0,96,0.00,,,0.00,0.0,meteohub,2013-10-01 05:54:00,
2013-10-01 01:59:00,59.5,58.5,30.01,South,171,0.0,1.0,96,0.00,,,0.00,0.0,meteohub,2013-10-01 05:59:00,
2013-10-01 02:04:00,59.4,58.3,30.01,South,171,0.0,1.0,96,0.00,,,0.00,0.0,meteohub,2013-10-01 06:04:00,
2013-10-01 02:09:00,59.2,58.1,30.01,South,171,0.0,1.0,96,0.00,,,0.00,0.0,meteohub,2013-10-01 06:09:00,
2013-10-01 02:14:00,59.2,58.1,30.01,South,171,0.0,0.0,96,0.00,,,0.00,0.0,meteohub,2013-10-01 06:14:00,
2013-10-01 02:19:00,59.2,57.7,30.00,South,171,0.0,1.0,95,0.00,,,0.00,0.0,meteohub,2013-10-01 06:19:00,
2013-10-01 02:24:00,59.2,57.7,30.00,South,171,0.0,1.0,95,0.00,,,0.00,0.0,meteohub,2013-10-01 06:24:00,
2013-10-01 02:29:00,59.4,57.6,30.00,South,171,0.0,1.0,94,0.00,,,0.00,0.0,meteohub,2013-10-01 06:29:00,
2013-10-01 02:34:00,59.5,57.7,30.00,South,171,0.0,2.0,94,0.00,,,0.00,0.0,meteohub,2013-10-01 06:34:00,
2013-10-01 02:39:00,59.5,57.7,30.00,South,171,0.0,2.0,94,0.00,,,0.00,0.0,meteohub,2013-10-01 06:39:00,
2013-10-01 02:44:00,59.5,57.7,30.00,South,171,0.0,2.0,94,0.00,,,0.00,0.0,meteohub,2013-10-01 06:44:00,
2013-10-01 02:49:00,59.5,57.7,30.00,South,171,0.0,1.0,94,0.00,,,0.00,0.0,meteohub,2013-10-01 06:49:00,
2013-10-01 02:54:00,59.5,57.7,30.00,South,171,0.0,1.0,94,0.00,,,0.00,0.0,meteohub,2013-10-01 06:54:00,
2013-10-01 02:59:00,59.4,57.6,30.00,South,171,0.0,1.0,94,0.00,,,0.00,0.0,meteohub,2013-10-01 06:59:00,
2013-10-01 03:05:00,59.2,57.4,30.00,South,171,0.0,1.0,94,0.00,,,0.00,0.0,meteohub,2013-10-01 07:05:00,
2013-10-01 03:10:00,59.0,57.2,30.00,South,171,0.0,0.0,94,0.00,,,0.00,0.0,meteohub,2013-10-01 07:10:00,
2013-10-01 03:15:00,59.0,57.2,30.00,South,171,0.0,0.0,94,0.00,,,0.00,0.0,meteohub,2013-10-01 07:15:00,
2013-10-01 03:20:00,59.2,57.4,30.00,South,171,0.0,1.0,94,0.00,,,0.00,0.0,meteohub,2013-10-01 07:20:00,
2013-10-01 03:25:00,59.2,57.4,30.00,South,171,0.0,1.0,94,0.00,,,0.00,0.0,meteohub,2013-10-01 07:25:00,
2013-10-01 03:30:00,59.0,57.2,29.99,South,171,0.0,1.0,94,0.00,,,0.00,0.0,meteohub,2013-10-01 07:30:00,
2013-10-01 03:35:00,59.0,57.2,29.99,South,171,0.0,0.0,94,0.00,,,0.00,0.0,meteohub,2013-10-01 07:35:00,
2013-10-01 03:40:00,59.0,57.2,29.99,South,171,0.0,2.0,94,0.00,,,0.00,0.0,meteohub,2013-10-01 07:40:00,
2013-10-01 03:45:00,59.0,57.2,29.99,South,171,0.0,2.0,94,0.00,,,0.00,0.0,meteohub,2013-10-01 07:45:00,
2013-10-01 03:50:00,59.0,57.6,29.99,South,171,0.0,1.0,95,0.00,,,0.00,0.0,meteohub,2013-10-01 07:50:00,
2013-10-01 03:55:00,59.0,57.6,29.99,South,171,0.0,5.0,95,0.00,,,0.00,0.0,meteohub,2013-10-01 07:55:00,
2013-10-01 04:01:00,59.0,57.6,29.99,South,171,0.0,5.0,95,0.00,,,0.00,0.0,meteohub,2013-10-01 08:01:00,
2013-10-01 04:06:00,59.0,57.9,29.99,South,171,0.0,0.0,96,0.00,,,0.00,0.0,meteohub,2013-10-01 08:06:00,
2013-10-01 04:11:00,59.0,57.9,29.99,South,171,0.0,1.0,96,0.00,,,0.00,0.0,meteohub,2013-10-01 08:11:00,
2013-10-01 04:17:00,59.0,57.9,29.99,South,171,0.0,1.0,96,0.00,,,0.00,0.0,meteohub,2013-10-01 08:17:00,
2013-10-01 04:22:00,59.0,58.1,29.99,South,171,0.0,1.0,97,0.00,,,0.00,0.0,meteohub,2013-10-01 08:22:00,
2013-10-01 04:27:00,59.0,58.1,29.99,South,171,0.0,0.0,97,0.00,,,0.00,0.0,meteohub,2013-10-01 08:27:00,
2013-10-01 04:32:00,59.2,58.3,29.99,South,171,0.0,1.0,97,0.00,,,0.00,0.0,meteohub,2013-10-01 08:32:00,
2013-10-01 04:37:00,59.4,58.5,29.99,South,171,0.0,1.0,97,0.00,,,0.00,0.0,meteohub,2013-10-01 08:37:00,
2013-10-01 04:42:00,59.5,58.6,29.99,South,171,0.0,1.0,97,0.00,,,0.00,0.0,meteohub,2013-10-01 08:42:00,
2013-10-01 04:47:00,59.5,58.6,30.00,South,171,0.0,1.0,97,0.00,,,0.00,0.0,meteohub,2013-10-01 08:47:00,
2013-10-01 04:52:00,59.5,58.6,30.00,South,171,0.0,0.0,97,0.00,,,0.00,0.0,meteohub,2013-10-01 08:52:00,
2013-10-01 04:57:00,59.5,58.6,29.99,South,171,0.0,0.0,97,0.00,,,0.00,0.0,meteohub,2013-10-01 08:57:00,
2013-10-01 05:03:00,59.5,58.6,30.00,South,171,0.0,0.0,97,0.00,,,0.00,0.0,meteohub,2013-10-01 09:03:00,
2013-10-01 05:08:00,59.5,58.6,30.00,South,171,0.0,0.0,97,0.00,,,0.00,0.0,meteohub,2013-10-01 09:08:00,
2013-10-01 05:13:00,59.5,58.6,30.00,South,171,0.0,0.0,97,0.00,,,0.00,0.0,meteohub,2013-10-01 09:13:00,
2013-10-01 05:18:00,59.5,58.6,30.00,South,171,0.0,0.0,97,0.00,,,0.00,0.0,meteohub,2013-10-01 09:18:00,
2013-10-01 05:23:00,59.5,58.6,30.00,South,171,0.0,0.0,97,0.00,,,0.00,0.0,meteohub,2013-10-01 09:23:00,
2013-10-01 05:28:00,59.5,58.6,30.01,South,171,0.0,0.0,97,0.00,,,0.00,0.0,meteohub,2013-10-01 09:28:00,
2013-10-01 05:33:00,59.7,58.8,30.00,South,171,0.0,0.0,97,0.00,,,0.00,0.0,meteohub,2013-10-01 09:33:00,
2013-10-01 05:39:00,59.7,58.8,30.00,South,171,0.0,0.0,97,0.00,,,0.00,0.0,meteohub,2013-10-01 09:39:00,
2013-10-01 05:44:00,59.7,58.8,30.01,South,171,0.0,0.0,97,0.00,,,0.00,0.0,meteohub,2013-10-01 09:44:00,
2013-10-01 05:49:00,59.7,58.8,30.01,South,171,0.0,0.0,97,0.00,,,0.00,0.0,meteohub,2013-10-01 09:49:00,
2013-10-01 05:54:00,59.9,59.0,30.01,South,171,0.0,0.0,97,0.00,,,0.00,0.0,meteohub,2013-10-01 09:54:00,
2013-10-01 05:59:00,60.1,59.2,30.01,South,171,0.0,0.0,97,0.00,,,0.00,0.0,meteohub,2013-10-01 09:59:00,
2013-10-01 06:04:00,60.1,59.2,30.01,South,171,0.0,0.0,97,0.00,,,0.00,0.0,meteohub,2013-10-01 10:04:00,
2013-10-01 06:09:00,60.3,59.4,30.01,South,171,0.0,0.0,97,0.00,,,0.00,0.0,meteohub,2013-10-01 10:09:00,
2013-10-01 06:14:00,60.3,59.2,30.01,South,171,0.0,0.0,96,0.00,,,0.00,0.0,meteohub,2013-10-01 10:14:00,
2013-10-01 06:19:00,60.4,59.4,30.01,South,171,0.0,0.0,96,0.00,,,0.00,0.0,meteohub,2013-10-01 10:19:00,
2013-10-01 06:25:00,60.4,59.4,30.01,South,171,0.0,0.0,96,0.00,,,0.00,0.0,meteohub,2013-10-01 10:25:00,
2013-10-01 06:30:00,60.4,59.4,30.01,South,171,0.0,0.0,96,0.00,,,0.00,0.0,meteohub,2013-10-01 10:30:00,
2013-10-01 06:35:00,60.6,59.5,30.02,South,171,0.0,0.0,96,0.00,,,0.00,0.0,meteohub,2013-10-01 10:35:00,
2013-10-01 06:40:00,60.6,59.5,30.02,South,171,0.0,0.0,96,0.00,,,0.00,0.0,meteohub,2013-10-01 10:40:00,
2013-10-01 06:45:00,60.8,59.7,30.02,South,171,0.0,0.0,96,0.00,,,0.00,0.0,meteohub,2013-10-01 10:45:00,
2013-10-01 06:50:00,61.0,59.5,30.02,South,171,0.0,0.0,95,0.00,,,0.00,0.0,meteohub,2013-10-01 10:50:00,
2013-10-01 06:55:00,61.0,59.5,30.02,South,171,0.0,0.0,95,0.00,,,0.00,0.0,meteohub,2013-10-01 10:55:00,
2013-10-01 07:00:00,61.2,59.7,30.02,South,171,0.0,0.0,95,0.00,,,0.00,0.0,meteohub,2013-10-01 11:00:00,
2013-10-01 07:06:00,61.2,59.7,30.03,South,171,0.0,0.0,95,0.00,,,0.00,0.0,meteohub,2013-10-01 11:06:00,
2013-10-01 07:11:00,61.2,59.7,30.02,South,171,0.0,0.0,95,0.00,,,0.00,0.0,meteohub,2013-10-01 11:11:00,
2013-10-01 07:16:00,61.2,59.7,30.02,South,171,0.0,0.0,95,0.00,,,0.00,5.0,meteohub,2013-10-01 11:16:00,
2013-10-01 07:22:00,61.2,59.7,30.03,South,171,0.0,0.0,95,0.00,,,0.00,7.0,meteohub,2013-10-01 11:22:00,
2013-10-01 07:27:00,61.2,59.7,30.03,South,171,0.0,0.0,95,0.00,,,0.00,11.0,meteohub,2013-10-01 11:27:00,
2013-10-01 07:32:00,61.2,59.7,30.03,South,171,0.0,0.0,95,0.00,,,0.00,12.0,meteohub,2013-10-01 11:32:00,
2013-10-01 07:37:00,61.2,59.7,30.03,South,171,0.0,0.0,95,0.00,,,0.00,16.0,meteohub,2013-10-01 11:37:00,
2013-10-01 07:42:00,61.2,59.7,30.03,South,171,0.0,0.0,95,0.00,,,0.00,19.0,meteohub,2013-10-01 11:42:00,
2013-10-01 07:47:00,61.2,60.1,30.03,South,171,0.0,0.0,96,0.00,,,0.00,25.0,meteohub,2013-10-01 11:47:00,
2013-10-01 07:52:00,61.2,59.7,30.03,South,171,0.0,0.0,95,0.00,,,0.00,33.0,meteohub,2013-10-01 11:52:00,
2013-10-01 07:57:00,61.3,59.9,30.03,South,171,0.0,0.0,95,0.00,,,0.00,47.0,meteohub,2013-10-01 11:57:00,
2013-10-01 08:02:00,61.3,59.9,30.03,South,171,0.0,0.0,95,0.00,,,0.00,60.0,meteohub,2013-10-01 12:02:00,
2013-10-01 08:07:00,61.5,60.1,30.03,South,171,0.0,0.0,95,0.00,,,0.00,65.0,meteohub,2013-10-01 12:07:00,
2013-10-01 08:12:00,61.9,60.4,30.03,South,171,0.0,0.0,95,0.00,,,0.00,58.0,meteohub,2013-10-01 12:12:00,
2013-10-01 08:17:00,61.9,60.4,30.03,South,171,0.0,0.0,95,0.00,,,0.00,58.0,meteohub,2013-10-01 12:17:00,
2013-10-01 08:22:00,62.1,60.3,30.03,South,171,0.0,0.0,94,0.00,,,0.00,67.0,meteohub,2013-10-01 12:22:00,
2013-10-01 08:28:00,62.1,60.3,30.03,South,171,0.0,0.0,94,0.00,,,0.00,72.0,meteohub,2013-10-01 12:28:00,
2013-10-01 08:33:00,62.1,60.6,30.03,South,171,0.0,0.0,95,0.00,,,0.00,74.0,meteohub,2013-10-01 12:33:00,
2013-10-01 08:38:00,62.2,60.8,30.04,South,171,0.0,0.0,95,0.00,,,0.00,91.0,meteohub,2013-10-01 12:38:00,
2013-10-01 08:43:00,62.4,61.0,30.04,South,171,0.0,0.0,95,0.00,,,0.00,118.0,meteohub,2013-10-01 12:43:00,
2013-10-01 08:48:00,62.6,61.2,30.04,South,171,0.0,0.0,95,0.00,,,0.00,134.0,meteohub,2013-10-01 12:48:00,
2013-10-01 08:53:00,63.0,61.5,30.04,South,171,0.0,0.0,95,0.00,,,0.00,121.0,meteohub,2013-10-01 12:53:00,
2013-10-01 08:58:00,63.1,61.3,30.04,South,171,0.0,0.0,94,0.00,,,0.00,125.0,meteohub,2013-10-01 12:58:00,
2013-10-01 09:04:00,63.3,61.5,30.04,South,171,0.0,0.0,94,0.00,,,0.00,155.0,meteohub,2013-10-01 13:04:00,
2013-10-01 09:09:00,63.7,61.9,30.04,South,171,0.0,0.0,94,0.00,,,0.00,172.0,meteohub,2013-10-01 13:09:00,
2013-10-01 09:13:00,64.0,62.1,30.04,South,171,0.0,0.0,93,0.00,,,0.00,171.0,meteohub,2013-10-01 13:13:00,
2013-10-01 09:18:00,64.2,61.9,30.04,South,171,0.0,0.0,92,0.00,,,0.00,190.0,meteohub,2013-10-01 13:18:00,
2013-10-01 09:24:00,64.8,62.4,30.05,South,171,0.0,0.0,92,0.00,,,0.00,188.0,meteohub,2013-10-01 13:24:00,
2013-10-01 09:29:00,65.1,62.1,30.04,South,171,0.0,0.0,90,0.00,,,0.00,200.0,meteohub,2013-10-01 13:29:00,
2013-10-01 09:34:00,65.7,62.6,30.05,South,171,0.0,1.0,90,0.00,,,0.00,202.0,meteohub,2013-10-01 13:34:00,
2013-10-01 09:39:00,66.0,62.6,30.05,South,171,0.0,1.0,89,0.00,,,0.00,197.0,meteohub,2013-10-01 13:39:00,
2013-10-01 09:44:00,66.6,63.1,30.04,South,171,0.0,1.0,89,0.00,,,0.00,213.0,meteohub,2013-10-01 13:44:00,
2013-10-01 09:49:00,66.9,63.3,30.04,South,171,0.0,1.0,88,0.00,,,0.00,216.0,meteohub,2013-10-01 13:49:00,
2013-10-01 09:54:00,67.3,63.3,30.04,South,171,0.0,0.0,87,0.00,,,0.00,227.0,meteohub,2013-10-01 13:54:00,
2013-10-01 09:59:00,67.6,63.7,30.04,South,171,0.0,0.0,87,0.00,,,0.00,216.0,meteohub,2013-10-01 13:59:00,
2013-10-01 10:04:00,68.0,63.3,30.04,South,171,1.0,0.0,85,0.00,,,0.00,181.0,meteohub,2013-10-01 14:04:00,
2013-10-01 10:09:00,68.4,63.7,30.04,South,171,0.0,2.0,85,0.00,,,0.00,179.0,meteohub,2013-10-01 14:09:00,
2013-10-01 10:14:00,68.5,63.5,30.04,South,171,0.0,2.0,84,0.00,,,0.00,288.0,meteohub,2013-10-01 14:14:00,
2013-10-01 10:20:00,69.4,64.4,30.04,South,171,0.0,2.0,84,0.00,,,0.00,559.0,meteohub,2013-10-01 14:20:00,
2013-10-01 10:25:00,70.5,64.8,30.04,South,171,0.0,2.0,82,0.00,,,0.00,555.0,meteohub,2013-10-01 14:25:00,
2013-10-01 10:30:00,71.2,64.4,30.04,NW,311,1.0,8.0,79,0.00,,,0.00,564.0,meteohub,2013-10-01 14:30:00,
2013-10-01 10:35:00,71.6,64.4,30.04,NW,313,1.0,8.0,78,0.00,,,0.00,575.0,meteohub,2013-10-01 14:35:00,
2013-10-01 10:41:00,72.1,64.2,30.04,NW,311,5.0,8.0,76,0.00,,,0.00,578.0,meteohub,2013-10-01 14:41:00,
2013-10-01 10:46:00,72.7,64.2,30.04,NW,305,0.0,8.0,75,0.00,,,0.00,598.0,meteohub,2013-10-01 14:46:00,
2013-10-01 10:51:00,73.2,64.8,30.04,NW,305,0.0,8.0,75,0.00,,,0.00,610.0,meteohub,2013-10-01 14:51:00,
2013-10-01 10:56:00,74.1,65.7,30.04,NW,313,2.0,8.0,75,0.00,,,0.00,622.0,meteohub,2013-10-01 14:56:00,
2013-10-01 11:01:00,74.8,65.7,30.04,NW,313,2.0,5.0,73,0.00,,,0.00,633.0,meteohub,2013-10-01 15:01:00,
2013-10-01 11:06:00,75.2,64.8,30.03,NW,304,0.0,5.0,70,0.00,,,0.00,647.0,meteohub,2013-10-01 15:06:00,
2013-10-01 11:11:00,75.6,65.1,30.03,NW,305,0.0,7.0,70,0.00,,,0.00,657.0,meteohub,2013-10-01 15:11:00,
2013-10-01 11:16:00,76.1,65.7,30.03,NW,325,0.0,7.0,70,0.00,,,0.00,668.0,meteohub,2013-10-01 15:16:00,
2013-10-01 11:21:00,76.6,65.7,30.03,NW,325,2.0,7.0,69,0.00,,,0.00,682.0,meteohub,2013-10-01 15:21:00,
2013-10-01 11:26:00,76.5,65.1,30.03,NW,309,2.0,5.0,68,0.00,,,0.00,687.0,meteohub,2013-10-01 15:26:00,
2013-10-01 11:31:00,76.3,64.6,30.03,NW,317,0.0,6.0,67,0.00,,,0.00,696.0,meteohub,2013-10-01 15:31:00,
2013-10-01 11:37:00,76.5,64.8,30.03,WNW,298,0.0,7.0,67,0.00,,,0.00,701.0,meteohub,2013-10-01 15:37:00,
2013-10-01 11:42:00,76.6,64.9,30.02,WNW,284,3.0,7.0,67,0.00,,,0.00,712.0,meteohub,2013-10-01 15:42:00,
2013-10-01 11:47:00,76.6,65.3,30.02,NW,323,0.0,8.0,68,0.00,,,0.00,719.0,meteohub,2013-10-01 15:47:00,
2013-10-01 11:52:00,77.0,64.8,30.02,WNW,300,1.0,8.0,66,0.00,,,0.00,722.0,meteohub,2013-10-01 15:52:00,
2013-10-01 11:57:00,77.0,65.1,30.02,NW,309,0.0,8.0,67,0.00,,,0.00,721.0,meteohub,2013-10-01 15:57:00,
2013-10-01 12:02:00,77.4,65.5,30.02,NW,304,2.0,7.0,67,0.00,,,0.00,742.0,meteohub,2013-10-01 16:02:00,
2013-10-01 12:08:00,77.5,65.3,30.02,WNW,300,0.0,7.0,66,0.00,,,0.00,735.0,meteohub,2013-10-01 16:08:00,
2013-10-01 12:13:00,78.3,66.4,30.02,WNW,300,1.0,7.0,67,0.00,,,0.00,752.0,meteohub,2013-10-01 16:13:00,
2013-10-01 12:18:00,78.1,66.2,30.02,NW,308,3.0,8.0,67,0.00,,,0.00,759.0,meteohub,2013-10-01 16:18:00,
2013-10-01 12:23:00,77.5,66.2,30.02,WNW,303,0.0,8.0,68,0.00,,,0.00,780.0,meteohub,2013-10-01 16:23:00,
2013-10-01 12:28:00,77.4,66.0,30.01,NW,313,4.0,12.0,68,0.00,,,0.00,807.0,meteohub,2013-10-01 16:28:00,
2013-10-01 12:31:00,77.2,65.8,30.01,NW,304,5.0,12.0,68,0.00,,,0.00,807.0,meteohub,2013-10-01 16:31:00,
2013-10-01 12:36:00,76.8,65.8,30.01,WNW,302,3.0,10.0,69,0.00,,,0.00,712.0,meteohub,2013-10-01 16:36:00,
2013-10-01 12:41:00,77.2,66.6,30.01,NW,306,4.0,10.0,70,0.00,,,0.00,805.0,meteohub,2013-10-01 16:41:00,
2013-10-01 12:47:00,77.7,66.4,30.01,NW,313,5.0,6.0,68,0.00,,,0.00,795.0,meteohub,2013-10-01 16:47:00,
2013-10-01 12:52:00,78.3,66.7,30.01,NW,315,1.0,7.0,68,0.00,,,0.00,817.0,meteohub,2013-10-01 16:52:00,
2013-10-01 12:57:00,78.6,66.4,30.00,NW,316,4.0,7.0,66,0.00,,,0.00,844.0,meteohub,2013-10-01 16:57:00,
2013-10-01 13:02:00,78.4,66.2,30.00,NW,306,3.0,7.0,66,0.00,,,0.00,889.0,meteohub,2013-10-01 17:02:00,
2013-10-01 13:07:00,78.4,66.6,30.00,NW,309,0.0,6.0,67,0.00,,,0.00,178.0,meteohub,2013-10-01 17:07:00,
2013-10-01 13:12:00,79.3,66.6,30.00,NW,315,2.0,6.0,65,0.00,,,0.00,888.0,meteohub,2013-10-01 17:12:00,
2013-10-01 13:17:00,79.5,66.7,30.00,WNW,300,5.0,9.0,65,0.00,,,0.00,339.0,meteohub,2013-10-01 17:17:00,
2013-10-01 13:22:00,79.3,66.0,29.99,NW,320,2.0,9.0,64,0.00,,,0.00,838.0,meteohub,2013-10-01 17:22:00,
2013-10-01 13:27:00,79.2,66.4,29.99,NW,313,6.0,9.0,65,0.00,,,0.00,824.0,meteohub,2013-10-01 17:27:00,
2013-10-01 13:32:00,78.6,65.8,29.99,NW,322,1.0,8.0,65,0.00,,,0.00,840.0,meteohub,2013-10-01 17:32:00,
2013-10-01 13:37:00,78.4,65.7,29.99,NW,309,4.0,9.0,65,0.00,,,0.00,837.0,meteohub,2013-10-01 17:37:00,
2013-10-01 13:43:00,78.6,65.8,29.99,NW,312,4.0,9.0,65,0.00,,,0.00,789.0,meteohub,2013-10-01 17:43:00,
2013-10-01 13:48:00,79.2,65.8,29.98,NW,305,4.0,9.0,64,0.00,,,0.00,828.0,meteohub,2013-10-01 17:48:00,
2013-10-01 13:53:00,79.5,65.8,29.98,NW,307,0.0,8.0,63,0.00,,,0.00,875.0,meteohub,2013-10-01 17:53:00,
2013-10-01 13:58:00,80.1,65.8,29.98,NW,306,3.0,8.0,62,0.00,,,0.00,246.0,meteohub,2013-10-01 17:58:00,
2013-10-01 14:03:00,80.2,66.0,29.98,NW,315,9.0,9.0,62,0.00,,,0.00,928.0,meteohub,2013-10-01 18:03:00,
2013-10-01 14:08:00,80.2,66.0,29.98,NW,306,8.0,11.0,62,0.00,,,0.00,867.0,meteohub,2013-10-01 18:08:00,
2013-10-01 14:13:00,80.1,65.8,29.97,WNW,303,4.0,11.0,62,0.00,,,0.00,854.0,meteohub,2013-10-01 18:13:00,
2013-10-01 14:18:00,80.2,66.0,29.97,NW,309,5.0,11.0,62,0.00,,,0.00,162.0,meteohub,2013-10-01 18:18:00,
2013-10-01 14:23:00,80.1,65.8,29.97,NW,309,0.0,11.0,62,0.00,,,0.00,846.0,meteohub,2013-10-01 18:23:00,
2013-10-01 14:28:00,80.2,66.0,29.97,NE,34,1.0,8.0,62,0.00,,,0.00,250.0,meteohub,2013-10-01 18:28:00,
2013-10-01 14:33:00,80.2,66.0,29.97,NNW,329,0.0,8.0,62,0.00,,,0.00,355.0,meteohub,2013-10-01 18:33:00,
2013-10-01 14:38:00,79.9,65.3,29.97,NW,313,0.0,8.0,61,0.00,,,0.00,216.0,meteohub,2013-10-01 18:38:00,
2013-10-01 14:43:00,79.5,65.3,29.97,NW,317,1.0,8.0,62,0.00,,,0.00,167.0,meteohub,2013-10-01 18:43:00,
2013-10-01 14:48:00,79.3,65.7,29.97,NW,315,4.0,8.0,63,0.00,,,0.00,731.0,meteohub,2013-10-01 18:48:00,
2013-10-01 14:54:00,80.1,66.4,29.97,NW,304,1.0,8.0,63,0.00,,,0.00,754.0,meteohub,2013-10-01 18:54:00,
2013-10-01 14:59:00,81.0,66.2,29.96,South,184,0.0,8.0,61,0.00,,,0.00,814.0,meteohub,2013-10-01 18:59:00,
2013-10-01 15:04:00,80.6,64.9,29.96,NW,314,8.0,8.0,59,0.00,,,0.00,216.0,meteohub,2013-10-01 19:04:00,
2013-10-01 15:09:00,79.7,65.1,29.96,NW,315,0.0,9.0,61,0.00,,,0.00,202.0,meteohub,2013-10-01 19:09:00,
2013-10-01 15:14:00,79.3,64.8,29.96,NW,315,2.0,10.0,61,0.00,,,0.00,271.0,meteohub,2013-10-01 19:14:00,
2013-10-01 15:19:00,79.3,65.1,29.96,NW,315,5.0,10.0,62,0.00,,,0.00,146.0,meteohub,2013-10-01 19:19:00,
2013-10-01 15:24:00,79.2,64.6,29.96,NW,307,2.0,9.0,61,0.00,,,0.00,139.0,meteohub,2013-10-01 19:24:00,
2013-10-01 15:29:00,79.2,65.5,29.96,NW,315,3.0,8.0,63,0.00,,,0.00,696.0,meteohub,2013-10-01 19:29:00,
2013-10-01 15:34:00,79.5,65.3,29.95,NW,307,0.0,9.0,62,0.00,,,0.00,638.0,meteohub,2013-10-01 19:34:00,
2013-10-01 15:39:00,80.2,66.6,29.95,NW,307,0.0,9.0,63,0.00,,,0.00,603.0,meteohub,2013-10-01 19:39:00,
2013-10-01 15:45:00,81.0,65.8,29.95,NW,318,0.0,7.0,60,0.00,,,0.00,573.0,meteohub,2013-10-01 19:45:00,
2013-10-01 15:50:00,80.8,65.1,29.95,NW,316,0.0,8.0,59,0.00,,,0.00,563.0,meteohub,2013-10-01 19:50:00,
2013-10-01 15:55:00,81.1,66.0,29.95,NW,316,0.0,8.0,60,0.00,,,0.00,548.0,meteohub,2013-10-01 19:55:00,
2013-10-01 16:00:00,81.9,66.2,29.94,SSW,212,0.0,7.0,59,0.00,,,0.00,531.0,meteohub,2013-10-01 20:00:00,
2013-10-01 16:05:00,82.2,66.0,29.94,SSW,212,0.0,7.0,58,0.00,,,0.00,529.0,meteohub,2013-10-01 20:05:00,
2013-10-01 16:11:00,82.0,65.3,29.95,NW,307,1.0,7.0,57,0.00,,,0.00,446.0,meteohub,2013-10-01 20:11:00,
2013-10-01 16:16:00,81.3,64.6,29.95,NW,317,1.0,7.0,57,0.00,,,0.00,575.0,meteohub,2013-10-01 20:16:00,
2013-10-01 16:21:00,81.3,64.6,29.95,NW,304,3.0,9.0,57,0.00,,,0.00,577.0,meteohub,2013-10-01 20:21:00,
2013-10-01 16:27:00,81.0,64.8,29.94,NW,311,3.0,9.0,58,0.00,,,0.00,172.0,meteohub,2013-10-01 20:27:00,
2013-10-01 16:32:00,80.2,64.6,29.95,NW,304,0.0,8.0,59,0.00,,,0.00,137.0,meteohub,2013-10-01 20:32:00,
2013-10-01 16:37:00,80.1,64.4,29.95,NW,306,0.0,8.0,59,0.00,,,0.00,132.0,meteohub,2013-10-01 20:37:00,
2013-10-01 16:42:00,79.9,64.8,29.95,NW,310,0.0,6.0,60,0.00,,,0.00,151.0,meteohub,2013-10-01 20:42:00,
2013-10-01 16:47:00,79.7,65.1,29.95,NW,310,0.0,7.0,61,0.00,,,0.00,125.0,meteohub,2013-10-01 20:47:00,
2013-10-01 16:52:00,79.7,65.1,29.95,NW,310,0.0,7.0,61,0.00,,,0.00,144.0,meteohub,2013-10-01 20:52:00,
2013-10-01 16:57:00,79.9,65.3,29.95,NW,310,0.0,7.0,61,0.00,,,0.00,176.0,meteohub,2013-10-01 20:57:00,
2013-10-01 17:02:00,80.1,65.8,29.94,NW,310,0.0,5.0,62,0.00,,,0.00,79.0,meteohub,2013-10-01 21:02:00,
2013-10-01 17:08:00,79.9,65.3,29.94,NW,310,0.0,4.0,61,0.00,,,0.00,63.0,meteohub,2013-10-01 21:08:00,
2013-10-01 17:13:00,79.7,65.1,29.94,NW,310,0.0,4.0,61,0.00,,,0.00,56.0,meteohub,2013-10-01 21:13:00,
2013-10-01 17:18:00,79.3,65.1,29.94,NW,311,0.0,4.0,62,0.00,,,0.00,44.0,meteohub,2013-10-01 21:18:00,
2013-10-01 17:23:00,79.0,64.8,29.94,NW,310,0.0,1.0,62,0.00,,,0.00,46.0,meteohub,2013-10-01 21:23:00,
2013-10-01 17:28:00,78.6,64.9,29.94,NW,310,0.0,1.0,63,0.00,,,0.00,63.0,meteohub,2013-10-01 21:28:00,
2013-10-01 17:34:00,78.6,64.9,29.94,NW,310,0.0,1.0,63,0.00,,,0.00,53.0,meteohub,2013-10-01 21:34:00,
2013-10-01 17:39:00,78.6,64.9,29.94,WNW,285,0.0,1.0,63,0.00,,,0.00,54.0,meteohub,2013-10-01 21:39:00,
2013-10-01 17:44:00,78.6,64.9,29.94,WNW,286,0.0,1.0,63,0.00,,,0.00,60.0,meteohub,2013-10-01 21:44:00,
2013-10-01 17:49:00,78.6,64.9,29.94,WNW,286,0.0,4.0,63,0.00,,,0.00,49.0,meteohub,2013-10-01 21:49:00,
2013-10-01 17:54:00,78.6,65.5,29.94,WNW,286,0.0,4.0,64,0.00,,,0.00,42.0,meteohub,2013-10-01 21:54:00,
2013-10-01 17:59:00,78.6,64.9,29.94,WNW,286,0.0,2.0,63,0.00,,,0.00,39.0,meteohub,2013-10-01 21:59:00,
2013-10-01 18:05:00,78.6,64.9,29.94,West,270,0.0,4.0,63,0.00,,,0.00,33.0,meteohub,2013-10-01 22:05:00,
2013-10-01 18:10:00,78.6,65.5,29.94,West,270,0.0,4.0,64,0.00,,,0.00,32.0,meteohub,2013-10-01 22:10:00,
2013-10-01 18:15:00,78.4,65.3,29.94,West,270,0.0,3.0,64,0.00,,,0.00,28.0,meteohub,2013-10-01 22:15:00,
2013-10-01 18:20:00,78.1,65.8,29.94,WSW,257,3.0,3.0,66,0.00,,,0.00,25.0,meteohub,2013-10-01 22:20:00,
2013-10-01 18:25:00,77.7,66.4,29.94,WSW,256,0.0,4.0,68,0.00,,,0.00,21.0,meteohub,2013-10-01 22:25:00,
2013-10-01 18:30:00,77.4,66.4,29.94,WSW,256,0.0,4.0,69,0.00,,,0.00,19.0,meteohub,2013-10-01 22:30:00,
2013-10-01 18:36:00,76.8,66.2,29.94,WSW,257,0.0,4.0,70,0.00,,,0.00,14.0,meteohub,2013-10-01 22:36:00,
2013-10-01 18:41:00,76.5,66.0,29.94,WSW,257,0.0,3.0,70,0.00,,,0.00,11.0,meteohub,2013-10-01 22:41:00,
2013-10-01 18:46:00,76.1,66.0,29.94,WSW,256,0.0,3.0,71,0.00,,,0.00,7.0,meteohub,2013-10-01 22:46:00,
2013-10-01 18:51:00,75.9,66.2,29.95,WSW,256,0.0,3.0,72,0.00,,,0.00,5.0,meteohub,2013-10-01 22:51:00,
2013-10-01 18:56:00,75.6,66.4,29.95,WSW,257,0.0,2.0,73,0.00,,,0.00,0.0,meteohub,2013-10-01 22:56:00,
2013-10-01 19:01:00,75.0,65.8,29.95,WSW,257,0.0,0.0,73,0.00,,,0.00,0.0,meteohub,2013-10-01 23:01:00,
2013-10-01 19:06:00,74.8,66.0,29.95,WSW,257,0.0,0.0,74,0.00,,,0.00,0.0,meteohub,2013-10-01 23:06:00,
2013-10-01 19:12:00,74.5,65.7,29.95,WSW,257,0.0,0.0,74,0.00,,,0.00,0.0,meteohub,2013-10-01 23:12:00,
2013-10-01 19:17:00,74.1,65.7,29.95,WSW,257,0.0,0.0,75,0.00,,,0.00,0.0,meteohub,2013-10-01 23:17:00,
2013-10-01 19:20:00,74.1,65.7,29.95,WSW,256,0.0,0.0,75,0.00,,,0.00,0.0,meteohub,2013-10-01 23:20:00,
2013-10-01 19:25:00,73.8,65.3,29.95,WSW,257,0.0,0.0,75,0.00,,,0.00,0.0,meteohub,2013-10-01 23:25:00,
2013-10-01 19:30:00,73.6,65.5,29.95,WSW,257,0.0,0.0,76,0.00,,,0.00,0.0,meteohub,2013-10-01 23:30:00,
2013-10-01 19:35:00,73.2,65.1,29.95,WSW,257,0.0,0.0,76,0.00,,,0.00,0.0,meteohub,2013-10-01 23:35:00,
2013-10-01 19:40:00,73.2,65.7,29.96,WSW,256,0.0,0.0,77,0.00,,,0.00,0.0,meteohub,2013-10-01 23:40:00,
2013-10-01 19:45:00,73.0,65.5,29.96,WSW,257,0.0,2.0,77,0.00,,,0.00,0.0,meteohub,2013-10-01 23:45:00,
2013-10-01 19:50:00,72.9,65.7,29.96,WSW,257,0.0,2.0,78,0.00,,,0.00,0.0,meteohub,2013-10-01 23:50:00,
2013-10-01 19:55:00,72.5,65.3,29.96,WSW,257,0.0,2.0,78,0.00,,,0.00,0.0,meteohub,2013-10-01 23:55:00,
2013-10-01 20:00:00,72.3,65.1,29.96,WSW,257,0.0,0.0,78,0.00,,,0.00,0.0,meteohub,2013-10-02 00:00:00,
2013-10-01 20:05:00,72.1,65.3,29.96,WSW,257,0.0,0.0,79,0.00,,,0.00,0.0,meteohub,2013-10-02 00:05:00,
2013-10-01 20:11:00,72.0,65.1,29.96,WSW,256,0.0,0.0,79,0.00,,,0.00,0.0,meteohub,2013-10-02 00:11:00,
2013-10-01 20:16:00,71.8,65.3,29.96,WSW,257,0.0,0.0,80,0.00,,,0.00,0.0,meteohub,2013-10-02 00:16:00,
2013-10-01 20:18:00,71.8,65.3,29.96,WSW,257,0.0,0.0,80,0.00,,,0.00,0.0,meteohub,2013-10-02 00:18:00,
2013-10-01 20:23:00,71.4,65.3,29.96,WSW,257,0.0,0.0,81,0.00,,,0.00,0.0,meteohub,2013-10-02 00:23:00,
2013-10-01 20:28:00,71.4,65.3,29.96,WSW,256,0.0,0.0,81,0.00,,,0.00,0.0,meteohub,2013-10-02 00:28:00,
2013-10-01 20:33:00,71.4,65.3,29.97,WSW,257,0.0,0.0,81,0.00,,,0.00,0.0,meteohub,2013-10-02 00:33:00,
2013-10-01 20:38:00,71.4,65.3,29.97,WSW,256,0.0,0.0,81,0.00,,,0.00,0.0,meteohub,2013-10-02 00:38:00,
2013-10-01 20:43:00,71.4,65.7,29.96,WSW,257,0.0,0.0,82,0.00,,,0.00,0.0,meteohub,2013-10-02 00:43:00,
2013-10-01 20:48:00,71.2,65.5,29.97,WSW,257,0.0,0.0,82,0.00,,,0.00,0.0,meteohub,2013-10-02 00:48:00,
2013-10-01 20:53:00,71.2,65.5,29.97,WSW,256,0.0,0.0,82,0.00,,,0.00,0.0,meteohub,2013-10-02 00:53:00,
2013-10-01 20:58:00,71.1,65.3,29.97,WSW,256,0.0,0.0,82,0.00,,,0.00,0.0,meteohub,2013-10-02 00:58:00,
2013-10-01 21:03:00,70.9,65.5,29.97,WSW,257,0.0,0.0,83,0.00,,,0.00,0.0,meteohub,2013-10-02 01:03:00,
2013-10-01 21:08:00,70.7,65.3,29.97,WSW,256,0.0,0.0,83,0.00,,,0.00,0.0,meteohub,2013-10-02 01:08:00,
2013-10-01 21:13:00,70.5,65.5,29.97,WSW,256,0.0,0.0,84,0.00,,,0.00,0.0,meteohub,2013-10-02 01:13:00,
2013-10-01 21:18:00,70.3,65.3,29.97,WSW,257,0.0,0.0,84,0.00,,,0.00,0.0,meteohub,2013-10-02 01:18:00,
2013-10-01 21:23:00,70.2,65.1,29.97,WSW,256,0.0,0.0,84,0.00,,,0.00,0.0,meteohub,2013-10-02 01:23:00,
2013-10-01 21:29:00,70.2,65.1,29.97,WSW,257,0.0,0.0,84,0.00,,,0.00,0.0,meteohub,2013-10-02 01:29:00,
2013-10-01 21:34:00,70.0,65.3,29.97,WSW,257,0.0,0.0,85,0.00,,,0.00,0.0,meteohub,2013-10-02 01:34:00,
2013-10-01 21:39:00,70.0,64.9,29.97,WSW,257,0.0,0.0,84,0.00,,,0.00,0.0,meteohub,2013-10-02 01:39:00,
2013-10-01 21:44:00,69.8,64.8,29.97,WSW,256,0.0,0.0,84,0.00,,,0.00,0.0,meteohub,2013-10-02 01:44:00,
2013-10-01 21:49:00,69.8,64.8,29.97,WSW,257,0.0,0.0,84,0.00,,,0.00,0.0,meteohub,2013-10-02 01:49:00,
2013-10-01 21:54:00,69.6,64.6,29.98,WSW,257,0.0,2.0,84,0.00,,,0.00,0.0,meteohub,2013-10-02 01:54:00,
2013-10-01 21:59:00,69.4,64.0,29.97,WSW,256,0.0,2.0,83,0.00,,,0.00,0.0,meteohub,2013-10-02 01:59:00,
2013-10-01 22:04:00,69.4,64.0,29.98,WSW,256,0.0,2.0,83,0.00,,,0.00,0.0,meteohub,2013-10-02 02:04:00,
2013-10-01 22:09:00,69.4,64.0,29.98,WSW,257,0.0,0.0,83,0.00,,,0.00,0.0,meteohub,2013-10-02 02:09:00,
2013-10-01 22:14:00,69.4,64.0,29.98,WSW,256,0.0,0.0,83,0.00,,,0.00,0.0,meteohub,2013-10-02 02:14:00,
2013-10-01 22:19:00,69.4,64.0,29.98,WSW,257,0.0,1.0,83,0.00,,,0.00,0.0,meteohub,2013-10-02 02:19:00,
2013-10-01 22:24:00,69.4,63.7,29.98,WSW,257,0.0,1.0,82,0.00,,,0.00,0.0,meteohub,2013-10-02 02:24:00,
2013-10-01 22:29:00,69.4,63.7,29.98,WSW,257,0.0,1.0,82,0.00,,,0.00,0.0,meteohub,2013-10-02 02:29:00,
2013-10-01 22:34:00,69.4,63.7,29.98,WSW,257,0.0,1.0,82,0.00,,,0.00,0.0,meteohub,2013-10-02 02:34:00,
2013-10-01 22:39:00,69.4,63.7,29.98,WSW,256,0.0,1.0,82,0.00,,,0.00,0.0,meteohub,2013-10-02 02:39:00,
2013-10-01 22:44:00,69.4,63.7,29.98,WSW,257,0.0,1.0,82,0.00,,,0.00,0.0,meteohub,2013-10-02 02:44:00,
2013-10-01 22:49:00,69.6,63.9,29.98,WSW,257,0.0,3.0,82,0.00,,,0.00,0.0,meteohub,2013-10-02 02:49:00,
2013-10-01 22:55:00,69.4,63.7,29.99,WSW,256,0.0,3.0,82,0.00,,,0.00,0.0,meteohub,2013-10-02 02:55:00,
2013-10-01 23:00:00,69.4,63.7,29.99,WSW,257,0.0,3.0,82,0.00,,,0.00,0.0,meteohub,2013-10-02 03:00:00,
2013-10-01 23:05:00,69.4,63.7,29.99,WSW,257,0.0,2.0,82,0.00,,,0.00,0.0,meteohub,2013-10-02 03:05:00,
2013-10-01 23:10:00,69.3,63.5,29.99,WSW,257,0.0,2.0,82,0.00,,,0.00,0.0,meteohub,2013-10-02 03:10:00,
2013-10-01 23:15:00,69.3,63.5,29.99,WSW,256,0.0,1.0,82,0.00,,,0.00,0.0,meteohub,2013-10-02 03:15:00,
2013-10-01 23:20:00,69.1,63.3,29.99,WSW,257,0.0,0.0,82,0.00,,,0.00,0.0,meteohub,2013-10-02 03:20:00,
2013-10-01 23:25:00,69.1,63.3,29.99,WSW,256,0.0,1.0,82,0.00,,,0.00,0.0,meteohub,2013-10-02 03:25:00,
2013-10-01 23:30:00,69.3,63.5,29.99,WSW,256,0.0,1.0,82,0.00,,,0.00,0.0,meteohub,2013-10-02 03:30:00,
2013-10-01 23:35:00,69.3,63.5,29.99,WSW,256,0.0,1.0,82,0.00,,,0.00,0.0,meteohub,2013-10-02 03:35:00,
2013-10-01 23:40:00,69.3,63.1,29.99,WSW,256,0.0,1.0,81,0.00,,,0.00,0.0,meteohub,2013-10-02 03:40:00,
2013-10-01 23:45:00,69.3,63.1,29.99,WSW,257,0.0,1.0,81,0.00,,,0.00,0.0,meteohub,2013-10-02 03:45:00,
2013-10-01 23:50:00,69.3,63.5,29.99,WSW,257,0.0,1.0,82,0.00,,,0.00,0.0,meteohub,2013-10-02 03:50:00,
2013-10-01 23:55:00,69.1,63.3,29.99,WSW,257,0.0,1.0,82,0.00,,,0.00,0.0,meteohub,2013-10-02 03:55:00,